sensor_id;sensor_type;location;lat;lon;timestamp;P1;durP1;ratioP1;P2;durP2;ratioP2
16845;SDS011;8539;53.188;8.696;2022-08-04T00:00:38;39.00;;;18.15;;
16845;SDS011;8539;53.188;8.696;2022-08-04T00:08:21;35.58;;;21.45;;
16845;SDS011;8539;53.188;8.696;2022-08-04T00:10:54;30.00;;;18.63;;
16845;SDS011;8539;53.188;8.696;2022-08-04T00:13:24;29.65;;;21.27;;
16845;SDS011;8539;53.188;8.696;2022-08-04T00:15:55;32.22;;;19.58;;
16845;SDS011;8539;53.188;8.696;2022-08-04T00:18:35;41.10;;;21.08;;
16845;SDS011;8539;53.188;8.696;2022-08-04T00:21:05;28.58;;;19.80;;
16845;SDS011;8539;53.188;8.696;2022-08-04T00:23:35;25.48;;;18.30;;
16845;SDS011;8539;53.188;8.696;2022-08-04T00:26:03;30.70;;;21.95;;
16845;SDS011;8539;53.188;8.696;2022-08-04T00:28:30;33.00;;;19.55;;
16845;SDS011;8539;53.188;8.696;2022-08-04T00:30:56;34.30;;;21.33;;
16845;SDS011;8539;53.188;8.696;2022-08-04T00:33:22;36.92;;;21.38;;
16845;SDS011;8539;53.188;8.696;2022-08-04T00:35:50;28.92;;;21.40;;
16845;SDS011;8539;53.188;8.696;2022-08-04T00:38:17;36.83;;;22.48;;
16845;SDS011;8539;53.188;8.696;2022-08-04T00:43:36;27.63;;;17.65;;
16845;SDS011;8539;53.188;8.696;2022-08-04T00:54:30;31.50;;;19.02;;
16845;SDS011;8539;53.188;8.696;2022-08-04T00:57:12;33.08;;;19.90;;
16845;SDS011;8539;53.188;8.696;2022-08-04T01:00:09;34.58;;;19.83;;
16845;SDS011;8539;53.188;8.696;2022-08-04T01:10:36;38.47;;;19.55;;
16845;SDS011;8539;53.188;8.696;2022-08-04T01:16:04;32.05;;;20.77;;
16845;SDS011;8539;53.188;8.696;2022-08-04T01:29:15;34.10;;;20.63;;
16845;SDS011;8539;53.188;8.696;2022-08-04T01:34:30;35.92;;;23.38;;
16845;SDS011;8539;53.188;8.696;2022-08-04T01:37:10;35.83;;;22.90;;
16845;SDS011;8539;53.188;8.696;2022-08-04T01:39:50;39.58;;;23.50;;
16845;SDS011;8539;53.188;8.696;2022-08-04T01:42:25;30.98;;;23.08;;
16845;SDS011;8539;53.188;8.696;2022-08-04T01:44:53;33.60;;;22.35;;
16845;SDS011;8539;53.188;8.696;2022-08-04T01:47:21;32.35;;;21.60;;
16845;SDS011;8539;53.188;8.696;2022-08-04T01:49:51;33.38;;;23.75;;
16845;SDS011;8539;53.188;8.696;2022-08-04T01:52:19;35.13;;;22.92;;
16845;SDS011;8539;53.188;8.696;2022-08-04T01:54:48;36.03;;;23.55;;
16845;SDS011;8539;53.188;8.696;2022-08-04T01:57:16;30.42;;;21.90;;
16845;SDS011;8539;53.188;8.696;2022-08-04T01:59:43;34.00;;;22.98;;
16845;SDS011;8539;53.188;8.696;2022-08-04T02:02:12;31.80;;;23.05;;
16845;SDS011;8539;53.188;8.696;2022-08-04T02:04:39;30.75;;;20.15;;
16845;SDS011;8539;53.188;8.696;2022-08-04T02:10:03;33.42;;;22.98;;
16845;SDS011;8539;53.188;8.696;2022-08-04T02:12:42;24.85;;;21.38;;
16845;SDS011;8539;53.188;8.696;2022-08-04T02:17:55;31.85;;;19.77;;
16845;SDS011;8539;53.188;8.696;2022-08-04T02:23:01;35.47;;;23.85;;
16845;SDS011;8539;53.188;8.696;2022-08-04T02:25:38;38.10;;;22.92;;
16845;SDS011;8539;53.188;8.696;2022-08-04T02:28:21;35.00;;;23.20;;
16845;SDS011;8539;53.188;8.696;2022-08-04T02:33:34;38.65;;;24.08;;
16845;SDS011;8539;53.188;8.696;2022-08-04T02:36:03;32.72;;;23.23;;
16845;SDS011;8539;53.188;8.696;2022-08-04T02:41:12;29.80;;;20.60;;
16845;SDS011;8539;53.188;8.696;2022-08-04T02:43:42;35.58;;;22.35;;
16845;SDS011;8539;53.188;8.696;2022-08-04T02:46:12;28.40;;;21.55;;
16845;SDS011;8539;53.188;8.696;2022-08-04T02:48:41;34.97;;;21.83;;
16845;SDS011;8539;53.188;8.696;2022-08-04T02:51:10;26.85;;;19.95;;
16845;SDS011;8539;53.188;8.696;2022-08-04T02:53:40;32.17;;;22.27;;
16845;SDS011;8539;53.188;8.696;2022-08-04T02:56:06;36.15;;;23.00;;
16845;SDS011;8539;53.188;8.696;2022-08-04T02:58:36;26.77;;;20.33;;
16845;SDS011;8539;53.188;8.696;2022-08-04T03:01:03;38.42;;;22.33;;
16845;SDS011;8539;53.188;8.696;2022-08-04T03:03:33;36.53;;;21.08;;
16845;SDS011;8539;53.188;8.696;2022-08-04T03:06:27;32.25;;;20.15;;
16845;SDS011;8539;53.188;8.696;2022-08-04T03:09:39;30.80;;;19.60;;
16845;SDS011;8539;53.188;8.696;2022-08-04T03:18:23;31.38;;;21.13;;
16845;SDS011;8539;53.188;8.696;2022-08-04T03:21:14;29.58;;;19.08;;
16845;SDS011;8539;53.188;8.696;2022-08-04T03:35:21;22.10;;;16.67;;
16845;SDS011;8539;53.188;8.696;2022-08-04T04:09:38;23.10;;;15.50;;
16845;SDS011;8539;53.188;8.696;2022-08-04T04:15:13;20.75;;;14.48;;
16845;SDS011;8539;53.188;8.696;2022-08-04T04:25:44;23.52;;;14.63;;
16845;SDS011;8539;53.188;8.696;2022-08-04T04:53:23;18.77;;;9.68;;
16845;SDS011;8539;53.188;8.696;2022-08-04T04:56:11;15.98;;;10.45;;
16845;SDS011;8539;53.188;8.696;2022-08-04T04:58:42;14.38;;;8.65;;
16845;SDS011;8539;53.188;8.696;2022-08-04T05:03:52;16.88;;;8.48;;
16845;SDS011;8539;53.188;8.696;2022-08-04T05:06:49;16.55;;;9.20;;
16845;SDS011;8539;53.188;8.696;2022-08-04T05:15:13;13.18;;;7.90;;
16845;SDS011;8539;53.188;8.696;2022-08-04T05:17:42;15.13;;;9.57;;
16845;SDS011;8539;53.188;8.696;2022-08-04T05:22:55;20.95;;;9.38;;
16845;SDS011;8539;53.188;8.696;2022-08-04T05:25:36;12.75;;;8.82;;
16845;SDS011;8539;53.188;8.696;2022-08-04T05:28:21;16.75;;;9.10;;
16845;SDS011;8539;53.188;8.696;2022-08-04T05:30:53;12.20;;;8.38;;
16845;SDS011;8539;53.188;8.696;2022-08-04T05:34:14;15.50;;;8.02;;
16845;SDS011;8539;53.188;8.696;2022-08-04T05:36:39;15.30;;;8.50;;
16845;SDS011;8539;53.188;8.696;2022-08-04T05:39:22;9.73;;;8.07;;
16845;SDS011;8539;53.188;8.696;2022-08-04T05:41:53;13.38;;;8.60;;
16845;SDS011;8539;53.188;8.696;2022-08-04T05:44:21;16.75;;;8.90;;
16845;SDS011;8539;53.188;8.696;2022-08-04T05:46:50;14.35;;;8.30;;
16845;SDS011;8539;53.188;8.696;2022-08-04T05:49:19;10.43;;;8.73;;
16845;SDS011;8539;53.188;8.696;2022-08-04T05:51:47;12.18;;;8.10;;
16845;SDS011;8539;53.188;8.696;2022-08-04T05:54:15;14.50;;;7.72;;
16845;SDS011;8539;53.188;8.696;2022-08-04T05:56:43;23.52;;;8.23;;
16845;SDS011;8539;53.188;8.696;2022-08-04T05:59:09;13.32;;;7.60;;
16845;SDS011;8539;53.188;8.696;2022-08-04T06:01:37;10.52;;;7.13;;
16845;SDS011;8539;53.188;8.696;2022-08-04T06:04:06;9.73;;;6.78;;
16845;SDS011;8539;53.188;8.696;2022-08-04T06:06:33;11.77;;;6.90;;
16845;SDS011;8539;53.188;8.696;2022-08-04T06:09:00;13.05;;;7.53;;
16845;SDS011;8539;53.188;8.696;2022-08-04T06:11:26;13.43;;;7.18;;
16845;SDS011;8539;53.188;8.696;2022-08-04T06:13:57;11.73;;;6.53;;
16845;SDS011;8539;53.188;8.696;2022-08-04T06:16:35;15.90;;;6.95;;
16845;SDS011;8539;53.188;8.696;2022-08-04T06:19:05;10.10;;;5.43;;
16845;SDS011;8539;53.188;8.696;2022-08-04T06:21:34;9.68;;;5.95;;
16845;SDS011;8539;53.188;8.696;2022-08-04T06:24:08;15.13;;;6.30;;
16845;SDS011;8539;53.188;8.696;2022-08-04T06:26:37;10.02;;;6.28;;
16845;SDS011;8539;53.188;8.696;2022-08-04T06:29:05;14.30;;;5.38;;
16845;SDS011;8539;53.188;8.696;2022-08-04T06:31:42;8.07;;;5.65;;
16845;SDS011;8539;53.188;8.696;2022-08-04T06:34:22;10.30;;;4.82;;
16845;SDS011;8539;53.188;8.696;2022-08-04T06:36:52;11.82;;;5.25;;
16845;SDS011;8539;53.188;8.696;2022-08-04T06:39:20;9.45;;;4.45;;
16845;SDS011;8539;53.188;8.696;2022-08-04T06:41:49;7.43;;;4.85;;
16845;SDS011;8539;53.188;8.696;2022-08-04T06:44:18;8.32;;;4.63;;
16845;SDS011;8539;53.188;8.696;2022-08-04T06:46:45;11.07;;;5.00;;
16845;SDS011;8539;53.188;8.696;2022-08-04T06:49:13;15.27;;;5.18;;
16845;SDS011;8539;53.188;8.696;2022-08-04T06:51:42;12.25;;;4.97;;
16845;SDS011;8539;53.188;8.696;2022-08-04T06:54:09;6.75;;;4.05;;
16845;SDS011;8539;53.188;8.696;2022-08-04T06:56:36;7.55;;;4.80;;
16845;SDS011;8539;53.188;8.696;2022-08-04T06:59:04;10.25;;;5.10;;
16845;SDS011;8539;53.188;8.696;2022-08-04T07:01:30;9.27;;;4.57;;
16845;SDS011;8539;53.188;8.696;2022-08-04T07:04:00;8.30;;;4.50;;
16845;SDS011;8539;53.188;8.696;2022-08-04T07:06:26;10.77;;;5.28;;
16845;SDS011;8539;53.188;8.696;2022-08-04T07:08:52;9.70;;;4.18;;
16845;SDS011;8539;53.188;8.696;2022-08-04T07:11:20;10.13;;;4.07;;
16845;SDS011;8539;53.188;8.696;2022-08-04T07:13:47;11.05;;;4.50;;
16845;SDS011;8539;53.188;8.696;2022-08-04T07:16:15;10.43;;;4.30;;
16845;SDS011;8539;53.188;8.696;2022-08-04T07:18:42;6.80;;;3.67;;
16845;SDS011;8539;53.188;8.696;2022-08-04T07:21:09;9.45;;;4.07;;
16845;SDS011;8539;53.188;8.696;2022-08-04T07:23:42;8.20;;;3.85;;
16845;SDS011;8539;53.188;8.696;2022-08-04T07:26:10;8.98;;;3.75;;
16845;SDS011;8539;53.188;8.696;2022-08-04T07:28:36;7.45;;;3.47;;
16845;SDS011;8539;53.188;8.696;2022-08-04T07:31:04;8.50;;;4.05;;
16845;SDS011;8539;53.188;8.696;2022-08-04T07:33:34;10.40;;;3.78;;
16845;SDS011;8539;53.188;8.696;2022-08-04T07:36:00;7.85;;;3.00;;
16845;SDS011;8539;53.188;8.696;2022-08-04T07:38:27;7.32;;;3.60;;
16845;SDS011;8539;53.188;8.696;2022-08-04T07:40:54;10.25;;;3.65;;
16845;SDS011;8539;53.188;8.696;2022-08-04T07:43:21;6.30;;;3.13;;
16845;SDS011;8539;53.188;8.696;2022-08-04T07:45:48;10.98;;;4.60;;
16845;SDS011;8539;53.188;8.696;2022-08-04T07:48:14;9.48;;;3.20;;
16845;SDS011;8539;53.188;8.696;2022-08-04T07:50:43;12.90;;;4.20;;
16845;SDS011;8539;53.188;8.696;2022-08-04T07:53:11;10.18;;;3.58;;
16845;SDS011;8539;53.188;8.696;2022-08-04T07:55:38;8.77;;;3.33;;
16845;SDS011;8539;53.188;8.696;2022-08-04T07:58:04;7.80;;;3.10;;
16845;SDS011;8539;53.188;8.696;2022-08-04T08:00:31;7.85;;;4.13;;
16845;SDS011;8539;53.188;8.696;2022-08-04T08:02:57;11.65;;;4.80;;
16845;SDS011;8539;53.188;8.696;2022-08-04T08:05:25;6.53;;;3.63;;
16845;SDS011;8539;53.188;8.696;2022-08-04T08:07:52;9.35;;;2.92;;
16845;SDS011;8539;53.188;8.696;2022-08-04T08:10:18;8.13;;;3.85;;
16845;SDS011;8539;53.188;8.696;2022-08-04T08:12:45;9.77;;;3.90;;
16845;SDS011;8539;53.188;8.696;2022-08-04T08:15:12;7.18;;;3.80;;
16845;SDS011;8539;53.188;8.696;2022-08-04T08:17:39;6.32;;;3.08;;
16845;SDS011;8539;53.188;8.696;2022-08-04T08:20:06;8.70;;;2.97;;
16845;SDS011;8539;53.188;8.696;2022-08-04T08:22:35;7.60;;;3.22;;
16845;SDS011;8539;53.188;8.696;2022-08-04T08:25:03;5.72;;;2.75;;
16845;SDS011;8539;53.188;8.696;2022-08-04T08:27:31;8.38;;;3.33;;
16845;SDS011;8539;53.188;8.696;2022-08-04T08:29:57;7.85;;;2.78;;
16845;SDS011;8539;53.188;8.696;2022-08-04T08:32:23;6.43;;;2.67;;
16845;SDS011;8539;53.188;8.696;2022-08-04T08:34:50;9.52;;;3.00;;
16845;SDS011;8539;53.188;8.696;2022-08-04T08:37:20;6.38;;;2.55;;
16845;SDS011;8539;53.188;8.696;2022-08-04T08:40:15;7.35;;;2.50;;
16845;SDS011;8539;53.188;8.696;2022-08-04T08:42:52;8.77;;;2.38;;
16845;SDS011;8539;53.188;8.696;2022-08-04T08:57:01;5.40;;;2.50;;
16845;SDS011;8539;53.188;8.696;2022-08-04T09:11:07;7.88;;;2.97;;
16845;SDS011;8539;53.188;8.696;2022-08-04T09:13:43;3.33;;;2.42;;
16845;SDS011;8539;53.188;8.696;2022-08-04T09:16:29;9.40;;;2.88;;
16845;SDS011;8539;53.188;8.696;2022-08-04T09:19:07;10.82;;;3.17;;
16845;SDS011;8539;53.188;8.696;2022-08-04T09:21:52;5.45;;;2.78;;
16845;SDS011;8539;53.188;8.696;2022-08-04T09:27:00;5.97;;;2.47;;
16845;SDS011;8539;53.188;8.696;2022-08-04T09:29:44;6.03;;;2.50;;
16845;SDS011;8539;53.188;8.696;2022-08-04T09:32:20;5.43;;;2.42;;
16845;SDS011;8539;53.188;8.696;2022-08-04T09:40:46;3.05;;;2.33;;
16845;SDS011;8539;53.188;8.696;2022-08-04T09:43:24;7.22;;;2.83;;
16845;SDS011;8539;53.188;8.696;2022-08-04T09:49:35;4.10;;;2.65;;
16845;SDS011;8539;53.188;8.696;2022-08-04T10:00:02;6.20;;;2.80;;
16845;SDS011;8539;53.188;8.696;2022-08-04T10:02:39;3.70;;;2.03;;
16845;SDS011;8539;53.188;8.696;2022-08-04T10:05:19;6.00;;;2.45;;
16845;SDS011;8539;53.188;8.696;2022-08-04T10:18:59;6.63;;;2.60;;
16845;SDS011;8539;53.188;8.696;2022-08-04T10:26:46;5.93;;;2.28;;
16845;SDS011;8539;53.188;8.696;2022-08-04T10:34:44;5.28;;;3.00;;
16845;SDS011;8539;53.188;8.696;2022-08-04T10:37:39;5.05;;;2.92;;
16845;SDS011;8539;53.188;8.696;2022-08-04T10:40:32;4.45;;;2.63;;
16845;SDS011;8539;53.188;8.696;2022-08-04T10:45:40;6.20;;;3.38;;
16845;SDS011;8539;53.188;8.696;2022-08-04T10:51:27;4.78;;;2.70;;
16845;SDS011;8539;53.188;8.696;2022-08-04T10:54:13;4.45;;;2.85;;
16845;SDS011;8539;53.188;8.696;2022-08-04T10:57:01;3.63;;;2.60;;
16845;SDS011;8539;53.188;8.696;2022-08-04T10:59:44;3.13;;;2.03;;
16845;SDS011;8539;53.188;8.696;2022-08-04T11:05:17;7.78;;;2.35;;
16845;SDS011;8539;53.188;8.696;2022-08-04T11:07:49;5.65;;;2.53;;
16845;SDS011;8539;53.188;8.696;2022-08-04T11:10:21;7.22;;;2.47;;
16845;SDS011;8539;53.188;8.696;2022-08-04T11:12:52;5.88;;;3.00;;
16845;SDS011;8539;53.188;8.696;2022-08-04T11:15:32;6.15;;;2.53;;
16845;SDS011;8539;53.188;8.696;2022-08-04T11:18:07;2.38;;;2.10;;
16845;SDS011;8539;53.188;8.696;2022-08-04T11:20:44;2.60;;;1.85;;
16845;SDS011;8539;53.188;8.696;2022-08-04T11:23:21;4.38;;;2.47;;
16845;SDS011;8539;53.188;8.696;2022-08-04T11:28:32;3.28;;;2.08;;
16845;SDS011;8539;53.188;8.696;2022-08-04T11:33:38;3.97;;;2.15;;
16845;SDS011;8539;53.188;8.696;2022-08-04T11:38:46;3.90;;;2.20;;
16845;SDS011;8539;53.188;8.696;2022-08-04T11:41:23;3.50;;;2.20;;
16845;SDS011;8539;53.188;8.696;2022-08-04T11:44:01;3.75;;;2.10;;
16845;SDS011;8539;53.188;8.696;2022-08-04T11:49:48;5.97;;;1.88;;
16845;SDS011;8539;53.188;8.696;2022-08-04T11:52:30;6.35;;;2.25;;
16845;SDS011;8539;53.188;8.696;2022-08-04T11:54:58;1.75;;;1.58;;
16845;SDS011;8539;53.188;8.696;2022-08-04T11:57:30;3.05;;;2.15;;
16845;SDS011;8539;53.188;8.696;2022-08-04T11:59:56;6.55;;;1.83;;
16845;SDS011;8539;53.188;8.696;2022-08-04T12:05:17;2.85;;;2.15;;
16845;SDS011;8539;53.188;8.696;2022-08-04T12:19:10;3.40;;;2.10;;
16845;SDS011;8539;53.188;8.696;2022-08-04T12:21:44;4.10;;;2.30;;
16845;SDS011;8539;53.188;8.696;2022-08-04T12:24:38;1.80;;;1.52;;
16845;SDS011;8539;53.188;8.696;2022-08-04T12:27:10;2.70;;;1.70;;
16845;SDS011;8539;53.188;8.696;2022-08-04T12:29:48;3.83;;;2.05;;
16845;SDS011;8539;53.188;8.696;2022-08-04T12:32:24;2.38;;;1.80;;
16845;SDS011;8539;53.188;8.696;2022-08-04T12:35:08;6.10;;;2.35;;
16845;SDS011;8539;53.188;8.696;2022-08-04T12:37:49;3.35;;;2.15;;
16845;SDS011;8539;53.188;8.696;2022-08-04T12:40:29;4.32;;;2.15;;
16845;SDS011;8539;53.188;8.696;2022-08-04T12:43:12;3.70;;;2.08;;
16845;SDS011;8539;53.188;8.696;2022-08-04T12:45:50;2.25;;;2.00;;
16845;SDS011;8539;53.188;8.696;2022-08-04T12:48:20;4.07;;;1.75;;
16845;SDS011;8539;53.188;8.696;2022-08-04T12:50:49;4.47;;;2.00;;
16845;SDS011;8539;53.188;8.696;2022-08-04T12:53:19;2.85;;;2.00;;
16845;SDS011;8539;53.188;8.696;2022-08-04T12:55:50;2.70;;;2.22;;
16845;SDS011;8539;53.188;8.696;2022-08-04T12:58:19;3.38;;;2.30;;
16845;SDS011;8539;53.188;8.696;2022-08-04T13:00:55;3.80;;;2.15;;
16845;SDS011;8539;53.188;8.696;2022-08-04T13:03:27;3.00;;;2.20;;
16845;SDS011;8539;53.188;8.696;2022-08-04T13:06:01;2.20;;;1.88;;
16845;SDS011;8539;53.188;8.696;2022-08-04T13:08:29;3.25;;;2.10;;
16845;SDS011;8539;53.188;8.696;2022-08-04T13:11:00;3.38;;;2.08;;
16845;SDS011;8539;53.188;8.696;2022-08-04T13:13:30;3.35;;;2.05;;
16845;SDS011;8539;53.188;8.696;2022-08-04T13:16:02;2.38;;;1.95;;
16845;SDS011;8539;53.188;8.696;2022-08-04T13:18:31;7.93;;;2.33;;
16845;SDS011;8539;53.188;8.696;2022-08-04T13:23:37;5.97;;;3.30;;
16845;SDS011;8539;53.188;8.696;2022-08-04T13:26:05;6.32;;;3.05;;
16845;SDS011;8539;53.188;8.696;2022-08-04T13:28:32;4.82;;;2.85;;
16845;SDS011;8539;53.188;8.696;2022-08-04T13:31:06;9.27;;;3.60;;
16845;SDS011;8539;53.188;8.696;2022-08-04T13:33:35;6.82;;;3.38;;
16845;SDS011;8539;53.188;8.696;2022-08-04T13:36:04;8.07;;;3.10;;
16845;SDS011;8539;53.188;8.696;2022-08-04T13:38:32;7.82;;;3.65;;
16845;SDS011;8539;53.188;8.696;2022-08-04T13:40:59;10.82;;;5.15;;
16845;SDS011;8539;53.188;8.696;2022-08-04T13:43:28;4.82;;;3.80;;
16845;SDS011;8539;53.188;8.696;2022-08-04T13:46:00;5.47;;;3.47;;
16845;SDS011;8539;53.188;8.696;2022-08-04T13:48:35;7.30;;;3.80;;
16845;SDS011;8539;53.188;8.696;2022-08-04T13:51:04;10.10;;;3.65;;
16845;SDS011;8539;53.188;8.696;2022-08-04T13:53:32;6.50;;;3.95;;
16845;SDS011;8539;53.188;8.696;2022-08-04T13:56:00;6.03;;;3.85;;
16845;SDS011;8539;53.188;8.696;2022-08-04T13:58:33;11.35;;;5.15;;
16845;SDS011;8539;53.188;8.696;2022-08-04T14:01:27;8.48;;;4.15;;
16845;SDS011;8539;53.188;8.696;2022-08-04T14:09:26;7.05;;;3.85;;
16845;SDS011;8539;53.188;8.696;2022-08-04T14:11:54;11.13;;;4.20;;
16845;SDS011;8539;53.188;8.696;2022-08-04T14:14:32;9.82;;;3.88;;
16845;SDS011;8539;53.188;8.696;2022-08-04T14:24:55;9.60;;;4.10;;
16845;SDS011;8539;53.188;8.696;2022-08-04T14:27:48;8.15;;;4.15;;
16845;SDS011;8539;53.188;8.696;2022-08-04T14:35:33;10.73;;;6.60;;
16845;SDS011;8539;53.188;8.696;2022-08-04T14:38:09;12.23;;;6.82;;
16845;SDS011;8539;53.188;8.696;2022-08-04T14:40:41;13.93;;;6.88;;
16845;SDS011;8539;53.188;8.696;2022-08-04T14:43:47;11.85;;;6.85;;
16845;SDS011;8539;53.188;8.696;2022-08-04T14:46:16;10.05;;;7.40;;
16845;SDS011;8539;53.188;8.696;2022-08-04T14:49:03;17.08;;;7.10;;
16845;SDS011;8539;53.188;8.696;2022-08-04T14:51:39;13.93;;;6.32;;
16845;SDS011;8539;53.188;8.696;2022-08-04T14:54:06;11.15;;;7.35;;
16845;SDS011;8539;53.188;8.696;2022-08-04T14:56:34;14.82;;;8.20;;
16845;SDS011;8539;53.188;8.696;2022-08-04T14:59:04;11.55;;;7.38;;
16845;SDS011;8539;53.188;8.696;2022-08-04T15:01:36;15.75;;;6.60;;
16845;SDS011;8539;53.188;8.696;2022-08-04T15:04:04;9.73;;;7.05;;
16845;SDS011;8539;53.188;8.696;2022-08-04T15:06:32;11.60;;;6.53;;
16845;SDS011;8539;53.188;8.696;2022-08-04T15:09:00;13.07;;;7.82;;
16845;SDS011;8539;53.188;8.696;2022-08-04T15:11:31;11.10;;;7.23;;
16845;SDS011;8539;53.188;8.696;2022-08-04T15:14:02;12.07;;;6.75;;
16845;SDS011;8539;53.188;8.696;2022-08-04T15:16:30;12.23;;;7.13;;
16845;SDS011;8539;53.188;8.696;2022-08-04T15:18:57;10.90;;;5.90;;
16845;SDS011;8539;53.188;8.696;2022-08-04T15:21:24;12.00;;;6.13;;
16845;SDS011;8539;53.188;8.696;2022-08-04T15:23:55;13.68;;;6.78;;
16845;SDS011;8539;53.188;8.696;2022-08-04T15:26:24;13.35;;;6.63;;
16845;SDS011;8539;53.188;8.696;2022-08-04T15:29:04;12.80;;;5.70;;
16845;SDS011;8539;53.188;8.696;2022-08-04T15:31:51;11.68;;;4.90;;
16845;SDS011;8539;53.188;8.696;2022-08-04T15:34:18;7.70;;;5.30;;
16845;SDS011;8539;53.188;8.696;2022-08-04T15:36:56;10.60;;;4.65;;
16845;SDS011;8539;53.188;8.696;2022-08-04T15:39:33;13.05;;;4.07;;
16845;SDS011;8539;53.188;8.696;2022-08-04T15:47:38;5.55;;;3.40;;
16845;SDS011;8539;53.188;8.696;2022-08-04T15:50:09;10.85;;;3.45;;
16845;SDS011;8539;53.188;8.696;2022-08-04T15:55:29;8.45;;;3.45;;
16845;SDS011;8539;53.188;8.696;2022-08-04T15:58:02;6.80;;;2.95;;
16845;SDS011;8539;53.188;8.696;2022-08-04T16:05:59;3.72;;;3.20;;
16845;SDS011;8539;53.188;8.696;2022-08-04T16:19:08;4.68;;;2.80;;
16845;SDS011;8539;53.188;8.696;2022-08-04T16:21:55;3.97;;;3.13;;
16845;SDS011;8539;53.188;8.696;2022-08-04T16:24:29;5.63;;;3.10;;
16845;SDS011;8539;53.188;8.696;2022-08-04T16:27:00;4.30;;;2.92;;
16845;SDS011;8539;53.188;8.696;2022-08-04T16:29:32;4.25;;;3.58;;
16845;SDS011;8539;53.188;8.696;2022-08-04T16:34:37;7.75;;;3.97;;
16845;SDS011;8539;53.188;8.696;2022-08-04T16:37:11;4.30;;;3.38;;
16845;SDS011;8539;53.188;8.696;2022-08-04T16:39:38;4.43;;;3.10;;
16845;SDS011;8539;53.188;8.696;2022-08-04T16:47:59;5.22;;;3.00;;
16845;SDS011;8539;53.188;8.696;2022-08-04T16:50:28;7.30;;;2.80;;
16845;SDS011;8539;53.188;8.696;2022-08-04T16:52:55;6.22;;;2.38;;
16845;SDS011;8539;53.188;8.696;2022-08-04T16:55:25;2.85;;;2.28;;
16845;SDS011;8539;53.188;8.696;2022-08-04T16:57:53;3.05;;;2.45;;
16845;SDS011;8539;53.188;8.696;2022-08-04T17:00:29;2.63;;;2.33;;
16845;SDS011;8539;53.188;8.696;2022-08-04T17:03:00;3.08;;;2.70;;
16845;SDS011;8539;53.188;8.696;2022-08-04T17:05:30;2.97;;;2.03;;
16845;SDS011;8539;53.188;8.696;2022-08-04T17:07:58;6.45;;;2.65;;
16845;SDS011;8539;53.188;8.696;2022-08-04T17:10:38;2.78;;;2.25;;
16845;SDS011;8539;53.188;8.696;2022-08-04T17:15:59;3.28;;;2.33;;
16845;SDS011;8539;53.188;8.696;2022-08-04T17:18:28;3.55;;;2.33;;
16845;SDS011;8539;53.188;8.696;2022-08-04T17:21:04;4.43;;;2.20;;
16845;SDS011;8539;53.188;8.696;2022-08-04T17:23:34;3.90;;;2.17;;
16845;SDS011;8539;53.188;8.696;2022-08-04T17:26:07;4.93;;;2.35;;
16845;SDS011;8539;53.188;8.696;2022-08-04T17:28:35;5.32;;;2.80;;
16845;SDS011;8539;53.188;8.696;2022-08-04T17:31:03;3.05;;;2.47;;
16845;SDS011;8539;53.188;8.696;2022-08-04T17:33:32;4.10;;;3.38;;
16845;SDS011;8539;53.188;8.696;2022-08-04T17:35:59;3.28;;;2.20;;
16845;SDS011;8539;53.188;8.696;2022-08-04T17:38:38;5.88;;;2.22;;
16845;SDS011;8539;53.188;8.696;2022-08-04T17:41:06;5.72;;;2.75;;
16845;SDS011;8539;53.188;8.696;2022-08-04T17:43:35;5.05;;;1.90;;
16845;SDS011;8539;53.188;8.696;2022-08-04T17:46:15;5.75;;;2.10;;
16845;SDS011;8539;53.188;8.696;2022-08-04T17:51:37;4.88;;;2.40;;
16845;SDS011;8539;53.188;8.696;2022-08-04T17:54:12;7.95;;;3.38;;
16845;SDS011;8539;53.188;8.696;2022-08-04T17:59:16;3.83;;;2.60;;
16845;SDS011;8539;53.188;8.696;2022-08-04T18:04:28;6.43;;;3.47;;
16845;SDS011;8539;53.188;8.696;2022-08-04T18:06:57;7.72;;;3.88;;
16845;SDS011;8539;53.188;8.696;2022-08-04T18:09:37;7.07;;;3.90;;
16845;SDS011;8539;53.188;8.696;2022-08-04T18:12:10;10.52;;;5.05;;
16845;SDS011;8539;53.188;8.696;2022-08-04T18:17:04;11.93;;;3.72;;
16845;SDS011;8539;53.188;8.696;2022-08-04T18:19:31;6.18;;;4.07;;
16845;SDS011;8539;53.188;8.696;2022-08-04T18:21:57;14.07;;;4.80;;
16845;SDS011;8539;53.188;8.696;2022-08-04T18:24:24;8.32;;;4.60;;
16845;SDS011;8539;53.188;8.696;2022-08-04T18:26:50;12.40;;;6.10;;
16845;SDS011;8539;53.188;8.696;2022-08-04T18:29:17;10.45;;;5.53;;
16845;SDS011;8539;53.188;8.696;2022-08-04T18:31:43;18.58;;;7.47;;
16845;SDS011;8539;53.188;8.696;2022-08-04T18:34:09;16.02;;;6.40;;
16845;SDS011;8539;53.188;8.696;2022-08-04T18:36:35;18.42;;;7.35;;
16845;SDS011;8539;53.188;8.696;2022-08-04T18:39:05;18.85;;;7.40;;
16845;SDS011;8539;53.188;8.696;2022-08-04T18:41:32;21.42;;;8.85;;
16845;SDS011;8539;53.188;8.696;2022-08-04T18:43:59;18.70;;;9.07;;
16845;SDS011;8539;53.188;8.696;2022-08-04T18:46:25;19.98;;;9.73;;
16845;SDS011;8539;53.188;8.696;2022-08-04T18:48:51;17.90;;;9.32;;
16845;SDS011;8539;53.188;8.696;2022-08-04T18:51:18;19.70;;;7.85;;
16845;SDS011;8539;53.188;8.696;2022-08-04T18:53:45;17.50;;;8.88;;
16845;SDS011;8539;53.188;8.696;2022-08-04T18:56:13;18.05;;;10.60;;
16845;SDS011;8539;53.188;8.696;2022-08-04T18:58:41;21.52;;;10.35;;
16845;SDS011;8539;53.188;8.696;2022-08-04T19:01:07;26.88;;;10.77;;
16845;SDS011;8539;53.188;8.696;2022-08-04T19:03:34;27.80;;;10.98;;
16845;SDS011;8539;53.188;8.696;2022-08-04T19:06:00;19.35;;;10.55;;
16845;SDS011;8539;53.188;8.696;2022-08-04T19:08:30;24.17;;;11.77;;
16845;SDS011;8539;53.188;8.696;2022-08-04T19:10:58;23.65;;;12.18;;
16845;SDS011;8539;53.188;8.696;2022-08-04T19:13:25;18.17;;;10.73;;
16845;SDS011;8539;53.188;8.696;2022-08-04T19:15:52;22.38;;;11.60;;
16845;SDS011;8539;53.188;8.696;2022-08-04T19:18:19;20.60;;;11.57;;
16845;SDS011;8539;53.188;8.696;2022-08-04T19:20:45;22.65;;;10.75;;
16845;SDS011;8539;53.188;8.696;2022-08-04T19:23:11;19.45;;;11.80;;
16845;SDS011;8539;53.188;8.696;2022-08-04T19:25:37;17.02;;;10.07;;
16845;SDS011;8539;53.188;8.696;2022-08-04T19:28:04;22.73;;;11.63;;
16845;SDS011;8539;53.188;8.696;2022-08-04T19:30:30;21.58;;;11.20;;
16845;SDS011;8539;53.188;8.696;2022-08-04T19:32:56;20.65;;;11.93;;
16845;SDS011;8539;53.188;8.696;2022-08-04T19:35:22;20.25;;;11.48;;
16845;SDS011;8539;53.188;8.696;2022-08-04T19:37:49;20.08;;;11.35;;
16845;SDS011;8539;53.188;8.696;2022-08-04T19:40:15;17.70;;;11.30;;
16845;SDS011;8539;53.188;8.696;2022-08-04T19:42:41;19.75;;;11.75;;
16845;SDS011;8539;53.188;8.696;2022-08-04T19:45:10;24.50;;;11.95;;
16845;SDS011;8539;53.188;8.696;2022-08-04T19:47:36;18.33;;;11.50;;
16845;SDS011;8539;53.188;8.696;2022-08-04T19:50:03;15.38;;;10.25;;
16845;SDS011;8539;53.188;8.696;2022-08-04T19:52:31;18.33;;;11.13;;
16845;SDS011;8539;53.188;8.696;2022-08-04T19:54:57;17.80;;;10.85;;
16845;SDS011;8539;53.188;8.696;2022-08-04T19:57:23;16.05;;;11.10;;
16845;SDS011;8539;53.188;8.696;2022-08-04T19:59:49;16.98;;;10.48;;
16845;SDS011;8539;53.188;8.696;2022-08-04T20:02:16;20.42;;;11.52;;
16845;SDS011;8539;53.188;8.696;2022-08-04T20:04:42;21.15;;;12.32;;
16845;SDS011;8539;53.188;8.696;2022-08-04T20:07:08;18.25;;;11.65;;
16845;SDS011;8539;53.188;8.696;2022-08-04T20:09:34;19.10;;;11.52;;
16845;SDS011;8539;53.188;8.696;2022-08-04T20:12:00;21.60;;;10.63;;
16845;SDS011;8539;53.188;8.696;2022-08-04T20:14:26;16.80;;;11.38;;
16845;SDS011;8539;53.188;8.696;2022-08-04T20:16:53;16.38;;;9.38;;
16845;SDS011;8539;53.188;8.696;2022-08-04T20:19:19;21.05;;;10.98;;
16845;SDS011;8539;53.188;8.696;2022-08-04T20:21:45;17.95;;;10.23;;
16845;SDS011;8539;53.188;8.696;2022-08-04T20:24:11;25.13;;;11.57;;
16845;SDS011;8539;53.188;8.696;2022-08-04T20:26:37;18.05;;;10.35;;
16845;SDS011;8539;53.188;8.696;2022-08-04T20:29:03;22.52;;;10.70;;
16845;SDS011;8539;53.188;8.696;2022-08-04T20:31:29;15.68;;;9.85;;
16845;SDS011;8539;53.188;8.696;2022-08-04T20:33:55;17.50;;;9.55;;